createdAt,value
2024-03-10T00:01:36.320Z,99688.06
2024-03-10T00:04:38.120Z,99681.88
2024-03-10T00:07:39.887Z,99683.66
2024-03-10T00:10:41.670Z,99688.06
2024-03-10T00:13:45.123Z,99685.38
2024-03-10T00:16:46.973Z,99682.72
2024-03-10T00:19:48.768Z,99700.38
2024-03-10T00:22:52.471Z,99701.28
2024-03-10T00:25:54.829Z,99689.81
2024-03-10T00:28:57.970Z,99691.53
2024-03-10T00:31:59.819Z,99688.00
2024-03-10T00:35:02.099Z,99685.34
2024-03-10T00:38:04.219Z,99684.41
2024-03-10T00:41:06.069Z,99682.66
2024-03-10T00:44:09.238Z,99678.28
2024-03-10T00:47:12.071Z,99665.03
2024-03-10T00:50:13.964Z,99665.03
2024-03-10T00:53:16.296Z,99656.25
2024-03-10T00:56:18.250Z,99665.94
2024-03-10T00:59:21.602Z,99651.84
2024-03-10T01:02:24.098Z,99654.47
2024-03-10T01:05:26.681Z,99652.72
2024-03-10T01:08:28.538Z,99657.16
2024-03-10T01:11:30.420Z,99651.91
2024-03-10T01:14:33.745Z,99645.69
2024-03-10T01:17:36.068Z,99630.72
2024-03-10T01:20:37.937Z,99630.75
2024-03-10T01:23:39.767Z,99631.69
2024-03-10T01:26:42.523Z,99633.47
2024-03-10T01:29:45.648Z,99619.38
2024-03-10T01:32:47.577Z,99620.28
2024-03-10T01:35:49.358Z,99615.03
2024-03-10T01:38:51.189Z,99622.13
2024-03-10T01:41:53.024Z,99627.41
2024-03-10T01:44:56.125Z,99628.25
2024-03-10T01:47:57.912Z,99622.97
2024-03-10T01:50:59.877Z,99623.84
2024-03-10T01:54:02.820Z,99616.78
2024-03-10T01:57:06.459Z,99616.81
2024-03-10T02:00:11.295Z,99617.66
2024-03-10T02:03:13.460Z,99614.13
2024-03-10T02:06:15.213Z,99605.38
2024-03-10T02:09:17.313Z,99596.53
2024-03-10T02:12:19.182Z,99596.53
2024-03-10T02:15:22.636Z,99590.34
2024-03-10T02:18:24.722Z,99584.19
2024-03-10T02:21:26.589Z,99580.66
2024-03-10T02:24:33.933Z,99593.00
2024-03-10T02:27:37.066Z,99593.88
2024-03-10T02:30:38.879Z,99588.63
2024-03-10T02:33:40.653Z,99591.25
2024-03-10T02:36:42.450Z,99586.81
2024-03-10T02:39:44.198Z,99579.75
2024-03-10T02:42:47.404Z,99576.22
2024-03-10T02:45:49.192Z,99584.16
2024-03-10T02:48:50.970Z,99583.22
2024-03-10T02:51:52.742Z,99584.13
2024-03-10T02:54:54.537Z,99582.38
2024-03-10T02:57:57.660Z,99575.31
2024-03-10T03:00:59.435Z,99568.31
2024-03-10T03:04:01.211Z,99572.72
2024-03-10T03:07:03.152Z,99552.44
2024-03-10T03:10:05.574Z,99561.25
2024-03-10T03:13:08.684Z,99558.63
2024-03-10T03:16:10.582Z,99556.84
2024-03-10T03:19:12.351Z,99557.72
2024-03-10T03:22:14.129Z,99548.91
2024-03-10T03:25:16.303Z,99559.53
2024-03-10T03:28:19.416Z,99543.66
2024-03-10T03:31:21.203Z,99542.78
2024-03-10T03:34:23.023Z,99549.84
2024-03-10T03:37:24.803Z,99556.91
2024-03-10T03:40:26.589Z,99556.91
2024-03-10T03:43:29.700Z,99552.50
2024-03-10T03:46:31.632Z,99549.84
2024-03-10T03:49:33.390Z,99545.44
2024-03-10T03:52:35.151Z,99547.25
2024-03-10T03:55:36.899Z,99543.72
2024-03-10T03:58:40.034Z,99534.03
2024-03-10T04:01:41.831Z,99535.84
2024-03-10T04:04:43.819Z,99529.66
2024-03-10T04:07:45.676Z,99519.09
2024-03-10T04:10:48.419Z,99522.59
2024-03-10T04:13:52.186Z,99527.00
2024-03-10T04:16:53.934Z,99524.38
2024-03-10T04:19:55.804Z,99511.13
2024-03-10T04:22:57.659Z,99510.25
2024-03-10T04:25:59.454Z,99524.38
2024-03-10T04:29:02.696Z,99528.78
2024-03-10T04:32:04.965Z,99540.19
2024-03-10T04:35:07.660Z,99535.78
2024-03-10T04:38:09.845Z,99534.03
2024-03-10T04:41:11.868Z,99534.00
2024-03-10T04:44:15.117Z,99529.59
2024-03-10T04:47:16.946Z,99533.13
2024-03-10T04:50:18.709Z,99533.13
2024-03-10T04:53:20.503Z,99526.06
2024-03-10T04:56:22.291Z,99527.84
2024-03-10T04:59:25.501Z,99525.19
2024-03-10T05:02:27.617Z,99528.72
2024-03-10T05:05:29.451Z,99520.81
2024-03-10T05:08:31.251Z,99529.59
2024-03-10T05:11:33.475Z,99538.38
2024-03-10T05:14:36.859Z,99529.53
2024-03-10T05:17:39.230Z,99522.50
2024-03-10T05:20:41.257Z,99519.84
2024-03-10T05:23:43.118Z,99524.28
2024-03-10T05:26:44.902Z,99533.91
2024-03-10T05:29:48.009Z,99533.06
2024-03-10T05:32:49.798Z,99530.38
2024-03-10T05:35:51.531Z,99520.66
2024-03-10T05:38:53.349Z,99525.94
2024-03-10T05:41:55.132Z,99523.31
2024-03-10T05:44:58.226Z,99521.56
2024-03-10T05:48:00.002Z,99520.69
2024-03-10T05:51:01.952Z,99513.66
2024-03-10T05:54:03.859Z,99511.88
2024-03-10T05:57:05.967Z,99506.53
2024-03-10T06:00:10.172Z,99517.13
2024-03-10T06:03:11.978Z,99510.03
2024-03-10T06:06:13.741Z,99517.03
2024-03-10T06:09:15.499Z,99509.97
2024-03-10T06:12:17.406Z,99510.88
2024-03-10T06:15:20.532Z,99530.28
2024-03-10T06:18:22.351Z,99546.16
2024-03-10T06:21:25.551Z,99551.41
2024-03-10T06:24:27.409Z,99552.25
2024-03-10T06:27:29.193Z,99554.00
2024-03-10T06:30:32.358Z,99539.00
2024-03-10T06:33:34.639Z,99534.56
2024-03-10T06:36:36.501Z,99530.13
2024-03-10T06:39:38.512Z,99522.16
2024-03-10T06:42:42.787Z,99529.25
2024-03-10T06:45:47.324Z,99531.84
2024-03-10T06:48:49.183Z,99538.03
2024-03-10T06:51:50.923Z,99555.63
2024-03-10T06:54:52.655Z,99566.16
2024-03-10T06:57:54.451Z,99559.97
2024-03-10T07:00:57.609Z,99559.00
2024-03-10T07:03:59.394Z,99562.56
2024-03-10T07:07:01.142Z,99558.06
2024-03-10T07:10:02.916Z,99543.06
2024-03-10T07:13:05.196Z,99550.13
2024-03-10T07:16:08.444Z,99537.75
2024-03-10T07:19:10.222Z,99533.38
2024-03-10T07:22:12.036Z,99536.97
2024-03-10T07:25:14.184Z,99534.31
2024-03-10T07:28:16.028Z,99526.38
2024-03-10T07:31:19.165Z,99521.97
2024-03-10T07:34:20.897Z,99528.19
2024-03-10T07:37:22.667Z,99508.78
2024-03-10T07:40:24.656Z,99504.34
2024-03-10T07:43:26.424Z,99523.75
2024-03-10T07:46:29.601Z,99536.13
2024-03-10T07:49:31.423Z,99551.09
2024-03-10T07:52:33.200Z,99561.59
2024-03-10T07:55:34.990Z,99573.91
2024-03-10T07:58:36.817Z,99557.97
2024-03-10T08:01:40.078Z,99556.22
2024-03-10T08:04:41.953Z,99560.50
2024-03-10T08:07:47.124Z,99563.81
2024-03-10T08:10:50.874Z,99557.56
2024-03-10T08:13:52.780Z,99542.41
2024-03-10T08:16:56.048Z,99532.56
2024-03-10T08:19:57.891Z,99541.28
2024-03-10T08:22:59.736Z,99545.47
2024-03-10T08:26:01.898Z,99542.69
2024-03-10T08:29:03.945Z,99548.88
2024-03-10T08:32:07.575Z,99542.69
2024-03-10T08:35:13.247Z,99548.75
2024-03-10T08:38:18.378Z,99555.88
2024-03-10T08:41:20.349Z,99551.41
2024-03-10T08:44:22.157Z,99553.22
2024-03-10T08:47:25.281Z,99550.38
2024-03-10T08:50:27.324Z,99544.06
2024-03-10T08:53:29.137Z,99536.81
2024-03-10T08:56:30.973Z,99526.94
2024-03-10T08:59:33.194Z,99523.22
2024-03-10T09:02:36.433Z,99512.47
2024-03-10T09:05:38.443Z,99516.69
2024-03-10T09:08:40.283Z,99515.78
2024-03-10T09:11:42.185Z,99512.28
2024-03-10T09:14:44.131Z,99508.66
2024-03-10T09:17:47.685Z,99509.44
2024-03-10T09:20:49.815Z,99500.56
2024-03-10T09:23:51.574Z,99494.09
2024-03-10T09:26:53.433Z,99482.41
2024-03-10T09:29:55.200Z,99487.50
2024-03-10T09:32:58.336Z,99485.56
2024-03-10T09:36:00.098Z,99482.63
2024-03-10T09:39:01.893Z,99483.28
2024-03-10T09:42:04.214Z,99477.94
2024-03-10T09:45:14.674Z,99467.88
2024-03-10T09:48:18.293Z,99476.47
2024-03-10T09:51:19.944Z,99474.38
2024-03-10T09:54:21.702Z,99482.81
2024-03-10T09:57:23.647Z,99473.59
2024-03-10T10:00:26.948Z,99484.06
2024-03-10T10:03:30.681Z,99475.81
2024-03-10T10:06:32.852Z,99481.84
2024-03-10T10:09:34.688Z,99481.53
2024-03-10T10:12:36.436Z,99483.72
2024-03-10T10:15:38.224Z,99483.13
2024-03-10T10:18:51.195Z,99488.94
2024-03-10T10:21:56.705Z,99486.63
2024-03-10T10:25:01.988Z,99465.03
2024-03-10T10:28:04.296Z,99487.03
2024-03-10T10:31:09.964Z,99475.47
2024-03-10T10:34:13.102Z,99467.38
2024-03-10T10:37:14.861Z,99476.31
2024-03-10T10:40:16.633Z,99476.34
2024-03-10T10:43:18.719Z,99472.72
2024-03-10T10:46:21.153Z,99465.25
2024-03-10T10:49:24.618Z,99460.81
2024-03-10T10:52:26.309Z,99465.38
2024-03-10T10:55:28.583Z,99456.06
2024-03-10T10:58:32.195Z,99454.06
2024-03-10T11:01:33.950Z,99460.47
2024-03-10T11:04:38.853Z,99453.09
2024-03-10T11:07:43.540Z,99441.56
2024-03-10T11:10:46.758Z,99430.50
2024-03-10T11:13:48.648Z,99423.22
2024-03-10T11:16:50.528Z,99411.72
2024-03-10T11:19:54.838Z,99402.56
2024-03-10T11:22:56.744Z,99411.91
2024-03-10T11:26:02.853Z,99406.56
2024-03-10T11:29:04.666Z,99391.34
2024-03-10T11:32:27.402Z,99384.94
2024-03-10T11:35:32.378Z,99376.91
2024-03-10T11:38:34.705Z,99375.56
2024-03-10T11:41:36.589Z,99374.28
2024-03-10T11:44:38.480Z,99371.31
2024-03-10T11:47:40.317Z,99365.69
2024-03-10T11:50:43.475Z,99364.19
2024-03-10T11:53:45.278Z,99364.28
2024-03-10T11:56:51.586Z,99366.94
2024-03-10T11:59:54.943Z,99372.81
2024-03-10T12:02:57.240Z,99374.13
2024-03-10T12:06:00.413Z,99370.53
2024-03-10T12:09:02.392Z,99363.75
2024-03-10T12:12:10.818Z,99357.53
2024-03-10T12:15:16.454Z,99356.94
2024-03-10T12:18:18.299Z,99346.50
2024-03-10T12:21:21.462Z,99344.09
2024-03-10T12:24:23.237Z,99338.34
2024-03-10T12:27:24.960Z,99328.78
2024-03-10T12:30:27.579Z,99318.34
2024-03-10T12:33:29.425Z,99312.41
2024-03-10T12:36:32.568Z,99308.69
2024-03-10T12:39:34.446Z,99308.69
2024-03-10T12:42:39.381Z,99309.75
2024-03-10T12:45:41.566Z,99308.13
2024-03-10T12:48:43.434Z,99313.53
2024-03-10T12:51:46.613Z,99310.22
2024-03-10T12:54:48.446Z,99307.63
2024-03-10T12:57:50.205Z,99295.88
2024-03-10T13:00:51.999Z,99285.69
2024-03-10T13:03:53.781Z,99294.19
2024-03-10T13:06:56.937Z,99294.28
2024-03-10T13:09:58.696Z,99287.25
2024-03-10T13:13:00.507Z,99285.03
2024-03-10T13:16:02.369Z,99284.84
2024-03-10T13:19:04.113Z,99281.34
2024-03-10T13:22:07.217Z,99283.84
2024-03-10T13:25:08.973Z,99279.22
2024-03-10T13:28:10.773Z,99277.09
2024-03-10T13:31:12.633Z,99280.56
2024-03-10T13:34:14.368Z,99274.84
2024-03-10T13:37:17.627Z,99276.59
2024-03-10T13:40:19.690Z,99275.53
2024-03-10T13:43:21.461Z,99276.09
2024-03-10T13:46:23.198Z,99275.63
2024-03-10T13:49:24.961Z,99269.75
2024-03-10T13:52:28.088Z,99262.34
2024-03-10T13:55:29.829Z,99262.84
2024-03-10T13:58:31.592Z,99248.69
2024-03-10T14:01:33.403Z,99253.19
2024-03-10T14:04:35.474Z,99251.53
2024-03-10T14:07:38.673Z,99249.13
2024-03-10T14:10:40.440Z,99245.72
2024-03-10T14:13:42.205Z,99243.22
2024-03-10T14:16:45.078Z,99245.53
2024-03-10T14:19:46.870Z,99239.31
2024-03-10T14:22:49.981Z,99237.38
2024-03-10T14:25:51.786Z,99231.00
2024-03-10T14:28:53.661Z,99222.44
2024-03-10T14:31:55.500Z,99225.03
2024-03-10T14:34:57.309Z,99211.72
2024-03-10T14:38:00.474Z,99204.22
2024-03-10T14:41:02.456Z,99197.03
2024-03-10T14:44:06.447Z,99197.09
2024-03-10T14:47:09.369Z,99189.84
2024-03-10T14:50:14.677Z,99182.66
2024-03-10T14:53:17.838Z,99188.13
2024-03-10T14:56:19.735Z,99194.41
2024-03-10T14:59:21.493Z,99187.31
2024-03-10T15:02:23.301Z,99191.94
2024-03-10T15:05:25.325Z,99188.31
2024-03-10T15:08:28.514Z,99188.47
2024-03-10T15:11:30.413Z,99184.22
2024-03-10T15:14:32.294Z,99182.59
2024-03-10T15:17:34.375Z,99176.31
2024-03-10T15:20:37.106Z,99178.56
2024-03-10T15:23:40.352Z,99184.72
2024-03-10T15:26:42.233Z,99180.56
2024-03-10T15:29:44.090Z,99178.31
2024-03-10T15:32:45.989Z,99182.78
2024-03-10T15:35:47.795Z,99187.34
2024-03-10T15:38:50.967Z,99186.31
2024-03-10T15:41:53.280Z,99189.03
2024-03-10T15:44:55.163Z,99187.34
2024-03-10T15:47:57.267Z,99192.88
2024-03-10T15:50:59.464Z,99193.88
2024-03-10T15:54:02.616Z,99195.56
2024-03-10T15:57:04.790Z,99197.63
2024-03-10T16:00:07.775Z,99205.13
2024-03-10T16:03:14.531Z,99203.56
2024-03-10T16:06:16.347Z,99208.38
2024-03-10T16:09:19.452Z,99211.56
2024-03-10T16:12:21.309Z,99215.41
2024-03-10T16:15:28.517Z,99211.47
2024-03-10T16:18:32.624Z,99219.69
2024-03-10T16:21:37.951Z,99218.34
2024-03-10T16:24:41.149Z,99222.19
2024-03-10T16:27:43.058Z,99216.28
2024-03-10T16:30:45.033Z,99205.06
2024-03-10T16:33:46.886Z,99202.56
2024-03-10T16:36:48.685Z,99202.78
2024-03-10T16:39:51.781Z,99193.91
2024-03-10T16:42:53.524Z,99193.19
2024-03-10T16:45:55.458Z,99190.66
2024-03-10T16:48:57.328Z,99184.63
2024-03-10T16:51:59.128Z,99183.88
2024-03-10T16:55:02.294Z,99181.22
2024-03-10T16:58:04.359Z,99176.88
2024-03-10T17:01:06.123Z,99169.81
2024-03-10T17:04:07.898Z,99168.09
2024-03-10T17:07:09.655Z,99165.44
2024-03-10T17:10:13.030Z,99175.34
2024-03-10T17:13:14.740Z,99171.03
2024-03-10T17:16:16.522Z,99170.28
2024-03-10T17:19:18.270Z,99168.63
2024-03-10T17:22:20.020Z,99165.19
2024-03-10T17:25:23.177Z,99161.88
2024-03-10T17:28:24.938Z,99156.53
2024-03-10T17:31:26.728Z,99145.13
2024-03-10T17:34:28.486Z,99148.72
2024-03-10T17:37:30.276Z,99145.25
2024-03-10T17:40:33.406Z,99149.84
2024-03-10T17:43:35.196Z,99149.84
2024-03-10T17:46:37.265Z,99148.19
2024-03-10T17:49:41.226Z,99134.09
2024-03-10T17:52:44.699Z,99145.53
2024-03-10T17:55:47.826Z,99135.06
2024-03-10T17:58:49.575Z,99136.03
2024-03-10T18:01:51.339Z,99131.56
2024-03-10T18:04:53.079Z,99134.34
2024-03-10T18:07:54.873Z,99124.59
2024-03-10T18:10:58.008Z,99128.09
2024-03-10T18:13:59.772Z,99123.66
2024-03-10T18:17:01.655Z,99121.09
2024-03-10T18:20:03.913Z,99122.94
2024-03-10T18:23:05.789Z,99130.13
2024-03-10T18:26:09.013Z,99123.88
2024-03-10T18:29:12.351Z,99121.25
2024-03-10T18:32:15.502Z,99121.31
2024-03-10T18:35:17.492Z,99115.16
2024-03-10T18:38:19.458Z,99113.56
2024-03-10T18:41:22.869Z,99117.28
2024-03-10T18:44:24.908Z,99118.94
2024-03-10T18:47:27.020Z,99118.22
2024-03-10T18:50:28.868Z,99111.03
2024-03-10T18:53:30.881Z,99109.50
2024-03-10T18:56:34.160Z,99105.72
2024-03-10T18:59:36.093Z,99107.44
2024-03-10T19:02:38.012Z,99109.28
2024-03-10T19:05:40.242Z,99098.53
2024-03-10T19:08:42.135Z,99110.09
2024-03-10T19:11:45.567Z,99105.81
2024-03-10T19:14:47.469Z,99101.41
2024-03-10T19:17:49.292Z,99105.09
2024-03-10T19:20:51.160Z,99105.13
2024-03-10T19:23:53.132Z,99107.78
2024-03-10T19:26:56.438Z,99100.78
2024-03-10T19:29:58.475Z,99088.25
2024-03-10T19:33:00.473Z,99096.25
2024-03-10T19:36:02.426Z,99095.34
2024-03-10T19:39:04.335Z,99099.84
2024-03-10T19:42:07.785Z,99099.75
2024-03-10T19:45:10.360Z,99094.31
2024-03-10T19:48:12.247Z,99095.09
2024-03-10T19:51:14.228Z,99104.84
2024-03-10T19:54:16.102Z,99092.66
2024-03-10T19:57:19.943Z,99096.97
2024-03-10T20:00:21.916Z,99090.09
2024-03-10T20:03:23.672Z,99099.94
2024-03-10T20:06:25.632Z,99087.69
2024-03-10T20:09:27.500Z,99095.47
2024-03-10T20:12:30.621Z,99093.53
2024-03-10T20:15:32.486Z,99092.81
2024-03-10T20:18:34.266Z,99083.13
2024-03-10T20:21:36.174Z,99100.88
2024-03-10T20:24:37.909Z,99097.47
2024-03-10T20:27:41.778Z,99097.47
2024-03-10T20:30:43.581Z,99111.81
2024-03-10T20:33:45.351Z,99104.72
2024-03-10T20:36:47.101Z,99094.16
2024-03-10T20:39:48.829Z,99094.31
2024-03-10T20:42:51.926Z,99090.97
2024-03-10T20:45:59.527Z,99096.28
2024-03-10T20:49:02.077Z,99107.88
2024-03-10T20:52:04.111Z,99095.72
2024-03-10T20:55:06.549Z,99086.06
2024-03-10T20:58:09.668Z,99094.94
2024-03-10T21:01:11.679Z,99094.00
2024-03-10T21:04:13.996Z,99101.19
2024-03-10T21:07:16.001Z,99096.91
2024-03-10T21:10:17.908Z,99096.94
2024-03-10T21:13:21.034Z,99103.28
2024-03-10T21:16:22.869Z,99106.94
2024-03-10T21:19:24.760Z,99095.66
2024-03-10T21:22:26.509Z,99093.97
2024-03-10T21:25:28.443Z,99103.75
2024-03-10T21:28:31.761Z,99106.44
2024-03-10T21:31:33.519Z,99103.78
2024-03-10T21:34:36.528Z,99104.72
2024-03-10T21:37:38.553Z,99094.31
2024-03-10T21:40:40.327Z,99103.06
2024-03-10T21:43:43.467Z,99107.47
2024-03-10T21:46:45.382Z,99105.84
2024-03-10T21:49:47.183Z,99101.50
2024-03-10T21:52:49.135Z,99107.75
2024-03-10T21:55:50.873Z,99104.19
2024-03-10T21:58:53.986Z,99107.75
2024-03-10T22:01:55.764Z,99107.69
2024-03-10T22:04:57.525Z,99118.25
2024-03-10T22:07:59.399Z,99114.75
2024-03-10T22:11:01.262Z,99114.72
2024-03-10T22:14:04.654Z,99116.47
2024-03-10T22:17:06.459Z,99118.19
2024-03-10T22:20:09.071Z,99108.47
2024-03-10T22:23:10.898Z,99113.94
2024-03-10T22:26:12.722Z,99110.38
2024-03-10T22:29:15.972Z,99115.69
2024-03-10T22:32:17.818Z,99119.34
2024-03-10T22:35:19.736Z,99119.38
2024-03-10T22:38:21.720Z,99123.88
2024-03-10T22:41:23.574Z,99123.94
2024-03-10T22:44:26.756Z,99132.94
2024-03-10T22:47:28.552Z,99124.94
2024-03-10T22:50:30.653Z,99136.47
2024-03-10T22:53:32.672Z,99132.03
2024-03-10T22:56:34.531Z,99133.03
2024-03-10T22:59:37.741Z,99124.16
2024-03-10T23:02:39.553Z,99123.38
2024-03-10T23:05:42.074Z,99121.78
2024-03-10T23:08:43.859Z,99127.13
2024-03-10T23:11:45.747Z,99121.88
2024-03-10T23:14:48.978Z,99116.66
2024-03-10T23:17:50.814Z,99116.75
2024-03-10T23:20:53.268Z,99120.41
2024-03-10T23:23:55.055Z,99121.25
2024-03-10T23:26:58.307Z,99123.13
2024-03-10T23:30:03.143Z,99122.31
2024-03-10T23:33:05.515Z,99112.66
2024-03-10T23:36:07.844Z,99113.53
2024-03-10T23:39:09.602Z,99117.09
2024-03-10T23:42:11.478Z,99110.88
2024-03-10T23:45:14.633Z,99115.31
2024-03-10T23:48:16.508Z,99115.31
2024-03-10T23:51:18.277Z,99117.06
2024-03-10T23:54:20.014Z,99117.19
2024-03-10T23:57:21.801Z,99110.16
